ANA115 CYVR-RJTT
Flight info
| Callsign | ANA115 |
|---|---|
| Flight time | N/A |
| Altitude | 36000 |
| Route | UQQ DCT KATCH DCT HMPTN DCT GRIZZ DCT CJAYY DCT 59N160W DCT SELDM/N0486F380 DCT OGGOE DCT NANDY DCT NATES DCT NIKLL DCT NYMPH DCT NUZAN DCT NRKEY DCT NIPPI/N0482F400 R220 NUBDA/N0481F410 R220 NANAC/N0481F400 Z22 LOSVA Y810 AKRIT Y807 POLIX |
| Aircraft | B772/H-SDE2E3FGHIJ5LORVWXY/LB1D1 |
Departure
| Time | 2026-05-03 22:13 |
|---|---|
| Airport | Vancouver International Airport (CYVR) |
Arrival
| Time | N/A |
|---|---|
| Airport | Tokyo Haneda International Airport (RJTT) |
| Time | Latitude | Longitude | Altitude | Speed | Heading |
|---|---|---|---|---|---|
| 2026-05-03 21:37 | 49.19825 | -123.18290 | 26 ft | 0 kts | 9° |
| 2026-05-03 21:56 | 49.19817 | -123.18292 | 25 ft | 2 kts | 9° |
| 2026-05-03 21:56 | 49.19807 | -123.18295 | 25 ft | 2 kts | 7° |
| 2026-05-03 21:56 | 49.19792 | -123.18295 | 25 ft | 2 kts | 349° |
| 2026-05-03 21:56 | 49.19778 | -123.18288 | 25 ft | 2 kts | 336° |
| 2026-05-03 21:57 | 49.19765 | -123.18277 | 25 ft | 2 kts | 322° |
| 2026-05-03 21:57 | 49.19754 | -123.18262 | 25 ft | 2 kts | 308° |
| 2026-05-03 21:57 | 49.19746 | -123.18243 | 25 ft | 2 kts | 295° |
| 2026-05-03 21:57 | 49.19742 | -123.18230 | 25 ft | 0 kts | 286° |
| 2026-05-03 21:58 | 49.19741 | -123.18225 | 25 ft | 0 kts | 286° |
| 2026-05-03 22:01 | 49.19743 | -123.18233 | 25 ft | 4 kts | 286° |
| 2026-05-03 22:02 | 49.19753 | -123.18305 | 25 ft | 7 kts | 280° |
| 2026-05-03 22:02 | 49.19762 | -123.18387 | 25 ft | 7 kts | 280° |
| 2026-05-03 22:02 | 49.19772 | -123.18471 | 25 ft | 8 kts | 280° |
| 2026-05-03 22:02 | 49.19774 | -123.18556 | 25 ft | 8 kts | 249° |
| 2026-05-03 22:03 | 49.19739 | -123.18623 | 25 ft | 8 kts | 224° |
| 2026-05-03 22:03 | 49.19692 | -123.18671 | 25 ft | 8 kts | 203° |
| 2026-05-03 22:03 | 49.19637 | -123.18692 | 25 ft | 8 kts | 189° |
| 2026-05-03 22:03 | 49.19576 | -123.18708 | 25 ft | 8 kts | 190° |
| 2026-05-03 22:04 | 49.19515 | -123.18724 | 25 ft | 9 kts | 190° |
| 2026-05-03 22:04 | 49.19453 | -123.18736 | 25 ft | 8 kts | 175° |
| 2026-05-03 22:04 | 49.19394 | -123.18704 | 25 ft | 9 kts | 163° |
| 2026-05-03 22:04 | 49.19331 | -123.18702 | 25 ft | 9 kts | 189° |
| 2026-05-03 22:05 | 49.19268 | -123.18719 | 25 ft | 9 kts | 191° |
| 2026-05-03 22:05 | 49.19204 | -123.18729 | 25 ft | 9 kts | 171° |
| 2026-05-03 22:05 | 49.19149 | -123.18682 | 25 ft | 9 kts | 142° |
| 2026-05-03 22:05 | 49.19098 | -123.18620 | 25 ft | 9 kts | 141° |
| 2026-05-03 22:06 | 49.19045 | -123.18556 | 26 ft | 9 kts | 142° |
| 2026-05-03 22:06 | 49.18992 | -123.18493 | 26 ft | 9 kts | 142° |
| 2026-05-03 22:06 | 49.18952 | -123.18411 | 26 ft | 9 kts | 110° |
| 2026-05-03 22:06 | 49.18939 | -123.18307 | 26 ft | 10 kts | 99° |
| 2026-05-03 22:07 | 49.18926 | -123.18192 | 26 ft | 11 kts | 100° |
| 2026-05-03 22:07 | 49.18912 | -123.18069 | 26 ft | 11 kts | 99° |
| 2026-05-03 22:07 | 49.18898 | -123.17942 | 25 ft | 12 kts | 99° |
| 2026-05-03 22:07 | 49.18883 | -123.17809 | 25 ft | 12 kts | 100° |
| 2026-05-03 22:08 | 49.18867 | -123.17670 | 25 ft | 13 kts | 101° |
| 2026-05-03 22:08 | 49.18849 | -123.17520 | 24 ft | 15 kts | 100° |
| 2026-05-03 22:08 | 49.18831 | -123.17357 | 24 ft | 15 kts | 99° |
| 2026-05-03 22:08 | 49.18813 | -123.17197 | 24 ft | 15 kts | 101° |
| 2026-05-03 22:09 | 49.18795 | -123.17039 | 23 ft | 15 kts | 99° |
| 2026-05-03 22:09 | 49.18776 | -123.16877 | 23 ft | 15 kts | 99° |
| 2026-05-03 22:09 | 49.18759 | -123.16716 | 23 ft | 15 kts | 101° |
| 2026-05-03 22:10 | 49.18723 | -123.16404 | 22 ft | 14 kts | 99° |
| 2026-05-03 22:10 | 49.18679 | -123.16267 | 22 ft | 13 kts | 133° |
| 2026-05-03 22:10 | 49.18645 | -123.16206 | 22 ft | 7 kts | 118° |
| 2026-05-03 22:10 | 49.18631 | -123.16129 | 22 ft | 7 kts | 102° |
| 2026-05-03 22:11 | 49.18607 | -123.16060 | 22 ft | 7 kts | 146° |
| 2026-05-03 22:11 | 49.18558 | -123.16043 | 22 ft | 7 kts | 182° |
| 2026-05-03 22:11 | 49.18508 | -123.16051 | 22 ft | 6 kts | 189° |
| 2026-05-03 22:11 | 49.18479 | -123.16087 | 22 ft | 5 kts | 257° |
| 2026-05-03 22:12 | 49.18482 | -123.16148 | 23 ft | 7 kts | 280° |
| 2026-05-03 22:12 | 49.18518 | -123.16458 | 23 ft | 62 kts | 280° |
| 2026-05-03 22:12 | 49.18631 | -123.17459 | 24 ft | 128 kts | 280° |
| 2026-05-03 22:12 | 49.18809 | -123.19084 | 89 ft | 176 kts | 280° |
| 2026-05-03 22:13 | 49.19008 | -123.20920 | 789 ft | 180 kts | 281° |
| 2026-05-03 22:13 | 49.19208 | -123.22783 | 1494 ft | 177 kts | 281° |
| 2026-05-03 22:13 | 49.19420 | -123.24677 | 1835 ft | 184 kts | 281° |
| 2026-05-03 22:13 | 49.19608 | -123.26618 | 2227 ft | 187 kts | 280° |
| 2026-05-03 22:14 | 49.19810 | -123.28604 | 2594 ft | 192 kts | 280° |
| 2026-05-03 22:14 | 49.20024 | -123.30693 | 2851 ft | 207 kts | 281° |
| 2026-05-03 22:14 | 49.20261 | -123.32959 | 3166 ft | 223 kts | 281° |
| 2026-05-03 22:14 | 49.20524 | -123.35294 | 3741 ft | 227 kts | 281° |
| 2026-05-03 22:15 | 49.20783 | -123.37747 | 4081 ft | 244 kts | 282° |
| 2026-05-03 22:15 | 49.21085 | -123.40307 | 4657 ft | 248 kts | 281° |
| 2026-05-03 22:15 | 49.21381 | -123.42999 | 4934 ft | 268 kts | 281° |
| 2026-05-03 22:15 | 49.21690 | -123.45836 | 4922 ft | 272 kts | 281° |
| 2026-05-03 22:16 | 49.22000 | -123.48693 | 4947 ft | 273 kts | 281° |
| 2026-05-03 22:16 | 49.22313 | -123.51566 | 4945 ft | 273 kts | 281° |
| 2026-05-03 22:16 | 49.22623 | -123.54423 | 4942 ft | 273 kts | 281° |
| 2026-05-03 22:16 | 49.22933 | -123.57276 | 4941 ft | 272 kts | 281° |
| 2026-05-03 22:17 | 49.23244 | -123.60127 | 4924 ft | 271 kts | 281° |
| 2026-05-03 22:17 | 49.23561 | -123.63034 | 5238 ft | 282 kts | 281° |
| 2026-05-03 22:17 | 49.23876 | -123.65930 | 6171 ft | 275 kts | 280° |
| 2026-05-03 22:17 | 49.24190 | -123.68814 | 6903 ft | 278 kts | 280° |
| 2026-05-03 22:18 | 49.24511 | -123.71754 | 7506 ft | 284 kts | 281° |
| 2026-05-03 22:18 | 49.24837 | -123.74732 | 8167 ft | 287 kts | 281° |
| 2026-05-03 22:18 | 49.25166 | -123.77752 | 8732 ft | 290 kts | 281° |
| 2026-05-03 22:18 | 49.25500 | -123.80798 | 9337 ft | 293 kts | 281° |
| 2026-05-03 22:19 | 49.25836 | -123.83874 | 10022 ft | 296 kts | 281° |
| 2026-05-03 22:19 | 49.26183 | -123.87037 | 10394 ft | 309 kts | 281° |
| 2026-05-03 22:19 | 49.26730 | -123.90270 | 10644 ft | 324 kts | 297° |
| 2026-05-03 22:19 | 49.27934 | -123.93294 | 10900 ft | 339 kts | 306° |
| 2026-05-03 22:20 | 49.29309 | -123.96320 | 11201 ft | 354 kts | 307° |
| 2026-05-03 22:20 | 49.30750 | -123.99465 | 11582 ft | 368 kts | 307° |
| 2026-05-03 22:20 | 49.32241 | -124.02724 | 12019 ft | 380 kts | 307° |
| 2026-05-03 22:20 | 49.33768 | -124.06067 | 12652 ft | 385 kts | 306° |
| 2026-05-03 22:21 | 49.35304 | -124.09426 | 13361 ft | 388 kts | 307° |
| 2026-05-03 22:21 | 49.36847 | -124.12813 | 14050 ft | 391 kts | 307° |
| 2026-05-03 22:21 | 49.38405 | -124.16237 | 14697 ft | 395 kts | 307° |
| 2026-05-03 22:21 | 49.39976 | -124.19693 | 15326 ft | 399 kts | 307° |
| 2026-05-03 22:22 | 49.41567 | -124.23200 | 15818 ft | 404 kts | 307° |
| 2026-05-03 22:22 | 49.43180 | -124.26759 | 15953 ft | 407 kts | 307° |
| 2026-05-03 22:22 | 49.44787 | -124.30309 | 15911 ft | 403 kts | 307° |
| 2026-05-03 22:22 | 49.46384 | -124.33844 | 15947 ft | 403 kts | 307° |
| 2026-05-03 22:23 | 49.47991 | -124.37405 | 15925 ft | 404 kts | 307° |
| 2026-05-03 22:23 | 49.49587 | -124.40947 | 15937 ft | 402 kts | 307° |
| 2026-05-03 22:23 | 49.51188 | -124.44505 | 15938 ft | 403 kts | 307° |
| 2026-05-03 22:23 | 49.52778 | -124.48041 | 15957 ft | 403 kts | 307° |
| 2026-05-03 22:24 | 49.54392 | -124.51635 | 16193 ft | 414 kts | 307° |
| 2026-05-03 22:24 | 49.56013 | -124.55251 | 17067 ft | 410 kts | 307° |
| 2026-05-03 22:24 | 49.57622 | -124.58845 | 17812 ft | 409 kts | 307° |
| 2026-05-03 22:24 | 49.59237 | -124.62458 | 18354 ft | 413 kts | 307° |
| 2026-05-03 22:25 | 49.60874 | -124.66123 | 18874 ft | 417 kts | 307° |
| 2026-05-03 22:25 | 49.62525 | -124.69826 | 19425 ft | 420 kts | 307° |
| 2026-05-03 22:25 | 49.64185 | -124.73554 | 20014 ft | 421 kts | 307° |
| 2026-05-03 22:25 | 49.65845 | -124.77288 | 20599 ft | 423 kts | 307° |
| 2026-05-03 22:26 | 49.67513 | -124.81044 | 21126 ft | 425 kts | 307° |
| 2026-05-03 22:26 | 49.69184 | -124.84813 | 21630 ft | 428 kts | 307° |
| 2026-05-03 22:26 | 49.70860 | -124.88600 | 22137 ft | 430 kts | 307° |
| 2026-05-03 22:26 | 49.72585 | -124.92405 | 22651 ft | 431 kts | 308° |
| 2026-05-03 22:27 | 49.74365 | -124.96140 | 23166 ft | 432 kts | 309° |
| 2026-05-03 22:27 | 49.76155 | -124.99894 | 23640 ft | 435 kts | 309° |
| 2026-05-03 22:27 | 49.77945 | -125.03661 | 24080 ft | 437 kts | 309° |
| 2026-05-03 22:27 | 49.79742 | -125.07454 | 24481 ft | 440 kts | 309° |
| 2026-05-03 22:28 | 49.81558 | -125.11293 | 24856 ft | 444 kts | 309° |
| 2026-05-03 22:28 | 49.83382 | -125.15161 | 25263 ft | 446 kts | 309° |
| 2026-05-03 22:28 | 49.85208 | -125.19043 | 25697 ft | 448 kts | 309° |
| 2026-05-03 22:28 | 49.87044 | -125.22952 | 26073 ft | 451 kts | 309° |
| 2026-05-03 22:29 | 49.88888 | -125.26883 | 26426 ft | 454 kts | 309° |
| 2026-05-03 22:29 | 49.90751 | -125.30861 | 26796 ft | 457 kts | 309° |
| 2026-05-03 22:29 | 49.92617 | -125.34854 | 27165 ft | 459 kts | 309° |
| 2026-05-03 22:29 | 49.94483 | -125.38854 | 27558 ft | 461 kts | 309° |
| 2026-05-03 22:30 | 49.96359 | -125.42881 | 27926 ft | 463 kts | 309° |
| 2026-05-03 22:30 | 49.98250 | -125.46945 | 28266 ft | 465 kts | 309° |
| 2026-05-03 22:30 | 50.00150 | -125.51036 | 28561 ft | 469 kts | 310° |
| 2026-05-03 22:30 | 50.02059 | -125.55153 | 28931 ft | 470 kts | 310° |
| 2026-05-03 22:31 | 50.03959 | -125.59257 | 29244 ft | 473 kts | 310° |
| 2026-05-03 22:31 | 50.05911 | -125.63480 | 29564 ft | 475 kts | 310° |
| 2026-05-03 22:31 | 50.07847 | -125.67675 | 29927 ft | 476 kts | 309° |
| 2026-05-03 22:31 | 50.09788 | -125.71887 | 30274 ft | 478 kts | 309° |
| 2026-05-03 22:32 | 50.11723 | -125.76095 | 30729 ft | 476 kts | 310° |
| 2026-05-03 22:32 | 50.13634 | -125.80259 | 31394 ft | 470 kts | 310° |
| 2026-05-03 22:32 | 50.15532 | -125.84401 | 32040 ft | 465 kts | 310° |
| 2026-05-03 22:32 | 50.17400 | -125.88482 | 32492 ft | 462 kts | 310° |
| 2026-05-03 22:33 | 50.19268 | -125.92570 | 32923 ft | 461 kts | 310° |
| 2026-05-03 22:33 | 50.21129 | -125.96646 | 33310 ft | 459 kts | 311° |
| 2026-05-03 22:33 | 50.22986 | -126.00720 | 33714 ft | 457 kts | 311° |
| 2026-05-03 22:33 | 50.24831 | -126.04775 | 34161 ft | 454 kts | 311° |
| 2026-05-03 22:34 | 50.26671 | -126.08824 | 34562 ft | 452 kts | 311° |
| 2026-05-03 22:34 | 50.28503 | -126.12864 | 34910 ft | 451 kts | 311° |
| 2026-05-03 22:34 | 50.30325 | -126.16884 | 35209 ft | 451 kts | 311° |
| 2026-05-03 22:34 | 50.32135 | -126.20886 | 35470 ft | 451 kts | 311° |
| 2026-05-03 22:35 | 50.33962 | -126.24930 | 35731 ft | 450 kts | 311° |
| 2026-05-03 22:35 | 50.35765 | -126.28929 | 36001 ft | 450 kts | 311° |
| 2026-05-03 22:35 | 50.37568 | -126.32932 | 36018 ft | 451 kts | 311° |
| 2026-05-03 22:36 | 50.41169 | -126.40951 | 35994 ft | 448 kts | 311° |
| 2026-05-03 22:36 | 50.44729 | -126.48902 | 35976 ft | 447 kts | 311° |
| 2026-05-03 22:37 | 50.48308 | -126.56914 | 35971 ft | 449 kts | 311° |
| 2026-05-03 22:37 | 50.51872 | -126.64924 | 35983 ft | 448 kts | 311° |
| 2026-05-03 22:38 | 50.55430 | -126.72943 | 35999 ft | 449 kts | 310° |
| 2026-05-03 22:38 | 50.58993 | -126.80996 | 35988 ft | 448 kts | 310° |
| 2026-05-03 22:39 | 50.62546 | -126.89052 | 35979 ft | 448 kts | 310° |
| 2026-05-03 22:39 | 50.66089 | -126.97111 | 35985 ft | 448 kts | 310° |
| 2026-05-03 22:40 | 50.69626 | -127.05181 | 35983 ft | 448 kts | 310° |
| 2026-05-03 22:40 | 50.73157 | -127.13262 | 35983 ft | 448 kts | 310° |
| 2026-05-03 22:41 | 50.76677 | -127.21342 | 35986 ft | 448 kts | 310° |
| 2026-05-03 22:41 | 50.80197 | -127.29447 | 35984 ft | 447 kts | 310° |
| 2026-05-03 22:42 | 50.83691 | -127.37519 | 36011 ft | 446 kts | 310° |
| 2026-05-03 22:42 | 50.87188 | -127.45619 | 36013 ft | 448 kts | 310° |
| 2026-05-03 22:43 | 50.90690 | -127.53760 | 35996 ft | 446 kts | 310° |
| 2026-05-03 22:43 | 50.94155 | -127.61839 | 36005 ft | 445 kts | 310° |
| 2026-05-03 22:44 | 50.97636 | -127.69979 | 36010 ft | 447 kts | 309° |
| 2026-05-03 22:44 | 51.01113 | -127.78138 | 36003 ft | 446 kts | 309° |
| 2026-05-03 22:45 | 51.04563 | -127.86258 | 36006 ft | 444 kts | 309° |
| 2026-05-03 22:45 | 51.08023 | -127.94425 | 36006 ft | 447 kts | 309° |
| 2026-05-03 22:46 | 51.11476 | -128.02604 | 36032 ft | 445 kts | 309° |
| 2026-05-03 22:46 | 51.14914 | -128.10770 | 36033 ft | 445 kts | 308° |
| 2026-05-03 22:47 | 51.18348 | -128.18955 | 36030 ft | 445 kts | 308° |
| 2026-05-03 22:47 | 51.21778 | -128.27155 | 36034 ft | 445 kts | 308° |
| 2026-05-03 22:48 | 51.25184 | -128.35324 | 36032 ft | 444 kts | 308° |
| 2026-05-03 22:48 | 51.28594 | -128.43528 | 36039 ft | 446 kts | 308° |
| 2026-05-03 22:49 | 51.32012 | -128.51777 | 36027 ft | 445 kts | 308° |
| 2026-05-03 22:49 | 51.35402 | -128.59985 | 36030 ft | 444 kts | 308° |
| 2026-05-03 22:50 | 51.38806 | -128.68251 | 36042 ft | 447 kts | 307° |
| 2026-05-03 22:50 | 51.42208 | -128.76543 | 36033 ft | 445 kts | 307° |
| 2026-05-03 22:51 | 51.45592 | -128.84815 | 36035 ft | 445 kts | 307° |
| 2026-05-03 22:51 | 51.48978 | -128.93118 | 36045 ft | 447 kts | 307° |
| 2026-05-03 22:52 | 51.52351 | -129.01418 | 36037 ft | 444 kts | 307° |
| 2026-05-03 22:52 | 51.55708 | -129.09705 | 36037 ft | 446 kts | 307° |
| 2026-05-03 22:53 | 51.59077 | -129.18047 | 36042 ft | 446 kts | 307° |
| 2026-05-03 22:53 | 51.62431 | -129.26379 | 36047 ft | 445 kts | 306° |
| 2026-05-03 22:54 | 51.65772 | -129.34705 | 36057 ft | 445 kts | 306° |
| 2026-05-03 22:54 | 51.69117 | -129.43069 | 36055 ft | 445 kts | 306° |
| 2026-05-03 22:55 | 51.72456 | -129.51444 | 36055 ft | 445 kts | 306° |
| 2026-05-03 22:55 | 51.76343 | -129.61230 | 36056 ft | 446 kts | 306° |
| 2026-05-03 22:56 | 51.79118 | -129.68238 | 36069 ft | 445 kts | 305° |
| 2026-05-03 22:56 | 51.82999 | -129.78072 | 36074 ft | 447 kts | 305° |
| 2026-05-03 22:57 | 51.85762 | -129.85097 | 36078 ft | 445 kts | 305° |
| 2026-05-03 22:57 | 51.89076 | -129.93548 | 36084 ft | 446 kts | 305° |
| 2026-05-03 22:58 | 51.92388 | -130.02021 | 36080 ft | 447 kts | 305° |
| 2026-05-03 22:58 | 51.95685 | -130.10485 | 36094 ft | 446 kts | 305° |
| 2026-05-03 22:59 | 51.98977 | -130.18964 | 36096 ft | 446 kts | 305° |
| 2026-05-03 22:59 | 52.02259 | -130.27443 | 36086 ft | 445 kts | 305° |
| 2026-05-03 23:00 | 52.05534 | -130.35935 | 36088 ft | 446 kts | 305° |
| 2026-05-03 23:00 | 52.08806 | -130.44446 | 36082 ft | 445 kts | 305° |
| 2026-05-03 23:01 | 52.12604 | -130.54362 | 36105 ft | 445 kts | 305° |
| 2026-05-03 23:01 | 52.15327 | -130.61495 | 36104 ft | 445 kts | 305° |
| 2026-05-03 23:02 | 52.18574 | -130.70027 | 36108 ft | 445 kts | 304° |
| 2026-05-03 23:02 | 52.22357 | -130.80004 | 36118 ft | 444 kts | 304° |
| 2026-05-03 23:03 | 52.25582 | -130.88541 | 36114 ft | 443 kts | 304° |
| 2026-05-03 23:03 | 52.28261 | -130.95652 | 36122 ft | 444 kts | 304° |
| 2026-05-03 23:04 | 52.31476 | -131.04214 | 36116 ft | 443 kts | 304° |
| 2026-05-03 23:04 | 52.34683 | -131.12784 | 36136 ft | 443 kts | 304° |
| 2026-05-03 23:05 | 52.38412 | -131.22785 | 36132 ft | 442 kts | 304° |
| 2026-05-03 23:05 | 52.41598 | -131.31361 | 36141 ft | 442 kts | 304° |
| 2026-05-03 23:06 | 52.44780 | -131.39956 | 36137 ft | 443 kts | 304° |
| 2026-05-03 23:06 | 52.47949 | -131.48545 | 36139 ft | 441 kts | 304° |
| 2026-05-03 23:07 | 52.50581 | -131.55699 | 36151 ft | 440 kts | 303° |
| 2026-05-03 23:07 | 52.54258 | -131.65731 | 36146 ft | 441 kts | 303° |
| 2026-05-03 23:08 | 52.57403 | -131.74342 | 36152 ft | 441 kts | 303° |
| 2026-05-03 23:08 | 52.60025 | -131.81545 | 36158 ft | 441 kts | 303° |
| 2026-05-03 23:09 | 52.63157 | -131.90173 | 36157 ft | 440 kts | 303° |
| 2026-05-03 23:09 | 52.66276 | -131.98797 | 36165 ft | 439 kts | 303° |
| 2026-05-03 23:10 | 52.69383 | -132.07419 | 36164 ft | 439 kts | 303° |
| 2026-05-03 23:10 | 52.72485 | -132.16055 | 36165 ft | 440 kts | 303° |
| 2026-05-03 23:11 | 52.76094 | -132.26139 | 36175 ft | 438 kts | 303° |
| 2026-05-03 23:11 | 52.79178 | -132.34787 | 36182 ft | 439 kts | 302° |
| 2026-05-03 23:12 | 52.82256 | -132.43450 | 36183 ft | 437 kts | 302° |
| 2026-05-03 23:12 | 52.85319 | -132.52101 | 36186 ft | 438 kts | 302° |
| 2026-05-03 23:13 | 52.87872 | -132.59336 | 36184 ft | 438 kts | 302° |
| 2026-05-03 23:13 | 52.90931 | -132.68029 | 36197 ft | 438 kts | 301° |
| 2026-05-03 23:14 | 52.93971 | -132.76701 | 36194 ft | 437 kts | 301° |
| 2026-05-03 23:14 | 52.97011 | -132.85402 | 36205 ft | 438 kts | 301° |
| 2026-05-03 23:15 | 53.00542 | -132.95548 | 36210 ft | 437 kts | 301° |
| 2026-05-03 23:15 | 53.03570 | -133.04279 | 36203 ft | 438 kts | 301° |
| 2026-05-03 23:16 | 53.06594 | -133.13033 | 36230 ft | 436 kts | 301° |
| 2026-05-03 23:16 | 53.09602 | -133.21770 | 36228 ft | 437 kts | 301° |
| 2026-05-03 23:17 | 53.12613 | -133.30544 | 36237 ft | 437 kts | 301° |
| 2026-05-03 23:17 | 53.15611 | -133.39314 | 36232 ft | 437 kts | 301° |
| 2026-05-03 23:18 | 53.18600 | -133.48089 | 36240 ft | 437 kts | 301° |
| 2026-05-03 23:18 | 53.21584 | -133.56878 | 36256 ft | 437 kts | 301° |
| 2026-05-03 23:19 | 53.24559 | -133.65676 | 36260 ft | 436 kts | 300° |
| 2026-05-03 23:19 | 53.27531 | -133.74491 | 36260 ft | 437 kts | 300° |
| 2026-05-03 23:20 | 53.30004 | -133.81854 | 36266 ft | 438 kts | 300° |
| 2026-05-03 23:20 | 53.33458 | -133.92172 | 36286 ft | 437 kts | 300° |
| 2026-05-03 23:21 | 53.36404 | -134.01008 | 36282 ft | 437 kts | 300° |
| 2026-05-03 23:21 | 53.39352 | -134.09880 | 36284 ft | 438 kts | 300° |
| 2026-05-03 23:22 | 53.43752 | -134.23185 | 36287 ft | 437 kts | 299° |
| 2026-05-03 23:22 | 53.46684 | -134.32092 | 36285 ft | 437 kts | 299° |
| 2026-05-03 23:23 | 53.49603 | -134.40989 | 36289 ft | 437 kts | 299° |
| 2026-05-03 23:23 | 53.52513 | -134.49893 | 36301 ft | 437 kts | 299° |
| 2026-05-03 23:24 | 53.54931 | -134.57317 | 36291 ft | 436 kts | 299° |
| 2026-05-03 23:24 | 53.57830 | -134.66247 | 36302 ft | 437 kts | 298° |
| 2026-05-03 23:25 | 53.61205 | -134.76681 | 36304 ft | 436 kts | 298° |
| 2026-05-03 23:25 | 53.64086 | -134.85626 | 36304 ft | 436 kts | 298° |
| 2026-05-03 23:26 | 53.67128 | -134.95108 | 36311 ft | 437 kts | 298° |
| 2026-05-03 23:26 | 53.72851 | -135.13045 | 36315 ft | 436 kts | 298° |
| 2026-05-03 23:27 | 53.77612 | -135.28070 | 36307 ft | 436 kts | 298° |
| 2026-05-03 23:27 | 53.80452 | -135.37076 | 36308 ft | 436 kts | 298° |
| 2026-05-03 23:28 | 53.83283 | -135.46087 | 36311 ft | 435 kts | 297° |
| 2026-05-03 23:28 | 53.86104 | -135.55100 | 36308 ft | 434 kts | 297° |
| 2026-05-03 23:29 | 53.88916 | -135.64121 | 36310 ft | 437 kts | 297° |
| 2026-05-03 23:29 | 53.91735 | -135.73194 | 36315 ft | 436 kts | 297° |
| 2026-05-03 23:30 | 53.94536 | -135.82244 | 36314 ft | 434 kts | 296° |
| 2026-05-03 23:30 | 53.96862 | -135.89788 | 36315 ft | 435 kts | 296° |
| 2026-05-03 23:31 | 54.00140 | -136.00373 | 36317 ft | 436 kts | 297° |
| 2026-05-03 23:31 | 54.03038 | -136.09372 | 36320 ft | 435 kts | 297° |
| 2026-05-03 23:32 | 54.05932 | -136.18372 | 36320 ft | 436 kts | 297° |
| 2026-05-03 23:32 | 54.08823 | -136.27390 | 36324 ft | 435 kts | 297° |
| 2026-05-03 23:33 | 54.11702 | -136.36403 | 36323 ft | 434 kts | 297° |
| 2026-05-03 23:33 | 54.14568 | -136.45405 | 36323 ft | 434 kts | 297° |
| 2026-05-03 23:34 | 54.17430 | -136.54426 | 36326 ft | 434 kts | 297° |
| 2026-05-03 23:34 | 54.20288 | -136.63470 | 36328 ft | 434 kts | 297° |
| 2026-05-03 23:35 | 54.23137 | -136.72516 | 36335 ft | 433 kts | 296° |
| 2026-05-03 23:35 | 54.25969 | -136.81546 | 36337 ft | 433 kts | 296° |
| 2026-05-03 23:36 | 54.28801 | -136.90607 | 36339 ft | 434 kts | 296° |
| 2026-05-03 23:36 | 54.31624 | -136.99673 | 36339 ft | 433 kts | 295° |
| 2026-05-03 23:37 | 54.34433 | -137.08732 | 36340 ft | 433 kts | 295° |
| 2026-05-03 23:37 | 54.37249 | -137.17846 | 36335 ft | 434 kts | 295° |
| 2026-05-03 23:38 | 54.39584 | -137.25428 | 36333 ft | 433 kts | 295° |
| 2026-05-03 23:38 | 54.42850 | -137.36075 | 36335 ft | 434 kts | 295° |
| 2026-05-03 23:39 | 54.45638 | -137.45202 | 36334 ft | 432 kts | 295° |
| 2026-05-03 23:39 | 54.48418 | -137.54339 | 36331 ft | 434 kts | 295° |
| 2026-05-03 23:40 | 54.51199 | -137.63511 | 36331 ft | 434 kts | 295° |
| 2026-05-03 23:40 | 54.54411 | -137.74151 | 36340 ft | 433 kts | 294° |
| 2026-05-03 23:41 | 54.59573 | -137.91352 | 36339 ft | 433 kts | 294° |
| 2026-05-03 23:41 | 54.67940 | -138.19492 | 36339 ft | 432 kts | 293° |
| 2026-05-03 23:42 | 54.78778 | -138.56461 | 36317 ft | 433 kts | 293° |
| 2026-05-03 23:42 | 54.89534 | -138.93743 | 36412 ft | 435 kts | 292° |
| 2026-05-03 23:43 | 54.97189 | -139.20638 | 36175 ft | 434 kts | 291° |
| 2026-05-03 23:43 | 54.99829 | -139.29981 | 36457 ft | 431 kts | 291° |
| 2026-05-03 23:43 | 55.02465 | -139.39360 | 36384 ft | 433 kts | 291° |
| 2026-05-03 23:44 | 55.07743 | -139.58241 | 36307 ft | 434 kts | 291° |
| 2026-05-03 23:44 | 55.17731 | -139.94397 | 36340 ft | 434 kts | 290° |
| 2026-05-03 23:45 | 55.20331 | -140.03906 | 36339 ft | 435 kts | 290° |
| 2026-05-03 23:45 | 55.22924 | -140.13424 | 36334 ft | 433 kts | 290° |
| 2026-05-03 23:46 | 55.31695 | -140.45927 | 36346 ft | 434 kts | 289° |
| 2026-05-03 23:46 | 55.41937 | -140.84486 | 36439 ft | 438 kts | 288° |
| 2026-05-03 23:47 | 55.47043 | -141.03943 | 36133 ft | 437 kts | 288° |
| 2026-05-03 23:47 | 55.51779 | -141.22125 | 36693 ft | 434 kts | 288° |
| 2026-05-03 23:47 | 55.54273 | -141.31785 | 36322 ft | 433 kts | 288° |
| 2026-05-03 23:47 | 55.58042 | -141.46454 | 36310 ft | 439 kts | 288° |
| 2026-05-03 23:48 | 55.66974 | -141.81582 | 36311 ft | 436 kts | 287° |
| 2026-05-03 23:48 | 55.75546 | -142.15833 | 36303 ft | 437 kts | 287° |
| 2026-05-03 23:49 | 55.84501 | -142.52188 | 36297 ft | 438 kts | 286° |
| 2026-05-03 23:49 | 55.93259 | -142.88339 | 36304 ft | 439 kts | 285° |
| 2026-05-03 23:50 | 56.00320 | -143.17928 | 36294 ft | 436 kts | 284° |
| 2026-05-03 23:50 | 56.10620 | -143.61839 | 36276 ft | 439 kts | 284° |
| 2026-05-03 23:51 | 56.19589 | -144.00816 | 36273 ft | 437 kts | 283° |
| 2026-05-03 23:51 | 56.28273 | -144.39268 | 36243 ft | 439 kts | 283° |
| 2026-05-03 23:52 | 56.36999 | -144.78632 | 36231 ft | 440 kts | 282° |
| 2026-05-03 23:52 | 56.44363 | -145.12442 | 36221 ft | 441 kts | 282° |
| 2026-05-03 23:53 | 56.51392 | -145.45242 | 36210 ft | 441 kts | 281° |
| 2026-05-03 23:53 | 56.58186 | -145.77448 | 36209 ft | 441 kts | 281° |
| 2026-05-03 23:54 | 56.64993 | -146.10242 | 36209 ft | 441 kts | 281° |
| 2026-05-03 23:54 | 56.71753 | -146.43342 | 36196 ft | 440 kts | 280° |
| 2026-05-03 23:55 | 56.78955 | -146.79232 | 36192 ft | 441 kts | 279° |
| 2026-05-03 23:55 | 56.85623 | -147.13056 | 36179 ft | 443 kts | 279° |
| 2026-05-03 23:56 | 56.92778 | -147.50009 | 36161 ft | 443 kts | 279° |
| 2026-05-03 23:56 | 56.99943 | -147.87743 | 36146 ft | 443 kts | 278° |
| 2026-05-03 23:57 | 57.05956 | -148.19989 | 36145 ft | 443 kts | 278° |
| 2026-05-03 23:57 | 57.11468 | -148.50064 | 36112 ft | 447 kts | 278° |
| 2026-05-03 23:58 | 57.17478 | -148.83394 | 36107 ft | 446 kts | 277° |
| 2026-05-03 23:58 | 57.24197 | -149.21405 | 36096 ft | 447 kts | 277° |
| 2026-05-03 23:59 | 57.29912 | -149.54366 | 36085 ft | 447 kts | 276° |
| 2026-05-03 23:59 | 57.35435 | -149.86794 | 36088 ft | 445 kts | 276° |
| 2026-05-04 00:00 | 57.40551 | -150.17384 | 36086 ft | 448 kts | 275° |
| 2026-05-04 00:00 | 57.45917 | -150.50042 | 36071 ft | 448 kts | 275° |
| 2026-05-04 00:01 | 57.49545 | -150.68607 | 36072 ft | 459 kts | 279° |
| 2026-05-04 00:01 | 57.53478 | -150.87516 | 36070 ft | 454 kts | 279° |
| 2026-05-04 00:01 | 57.60898 | -151.24084 | 36049 ft | 454 kts | 279° |
| 2026-05-04 00:02 | 57.69475 | -151.67344 | 36054 ft | 457 kts | 278° |
| 2026-05-04 00:02 | 57.76520 | -152.03596 | 36051 ft | 454 kts | 277° |
| 2026-05-04 00:03 | 57.82992 | -152.37514 | 36064 ft | 453 kts | 277° |
| 2026-05-04 00:03 | 57.89387 | -152.71628 | 36050 ft | 454 kts | 277° |
| 2026-05-04 00:04 | 57.96467 | -153.10128 | 36056 ft | 455 kts | 277° |